Time;durP1;ratioP1;P1;durP2;ratioP2;P2;SDS_P1;SDS_P2;PMS_P1;PMS_P2;Temp;Humidity;BMP_temperature;BMP_pressure;BME280_temperature;BME280_humidity;BME280_pressure;Samples;Min_cycle;Max_cycle;Signal;HPM_P1;HPM_P2
2021/01/11 00:02:19;;;;;;;24.13;8.40;;;5.40;83.20;;;;;;5033811;28;20029;-53
2021/01/11 00:04:44;;;;;;;20.50;9.13;;;5.40;83.20;;;;;;5033326;28;20105;-53
2021/01/11 00:07:11;;;;;;;24.80;9.18;;;5.30;83.20;;;;;;5033501;28;20483;-52
2021/01/11 00:09:37;;;;;;;28.98;10.45;;;5.30;83.10;;;;;;5033224;28;20485;-52
2021/01/11 00:12:03;;;;;;;25.42;10.20;;;5.30;83.10;;;;;;5033629;28;20057;-52
2021/01/11 00:14:29;;;;;;;23.58;10.07;;;5.30;83.20;;;;;;5033430;28;20034;-52
2021/01/11 00:16:54;;;;;;;24.48;10.02;;;5.30;83.20;;;;;;5033220;28;20346;-52
2021/01/11 00:19:20;;;;;;;24.73;10.13;;;5.30;83.20;;;;;;5033445;28;20029;-52
2021/01/11 00:21:46;;;;;;;21.60;9.05;;;5.30;83.20;;;;;;5033451;28;20025;-53
2021/01/11 00:24:12;;;;;;;23.92;9.45;;;5.30;83.20;;;;;;5033011;28;20401;-52
2021/01/11 00:26:38;;;;;;;25.02;8.38;;;5.30;83.20;;;;;;5033013;28;20021;-53
2021/01/11 00:29:03;;;;;;;22.38;8.20;;;5.30;83.10;;;;;;5033306;28;20037;-53
2021/01/11 00:31:29;;;;;;;23.98;10.23;;;5.30;83.20;;;;;;5033209;28;20029;-53
2021/01/11 00:33:55;;;;;;;23.60;9.27;;;5.30;83.30;;;;;;5033114;28;20025;-53
2021/01/11 00:36:21;;;;;;;25.48;9.68;;;5.30;83.20;;;;;;5033058;28;20328;-52
2021/01/11 00:38:47;;;;;;;23.70;8.23;;;5.20;83.10;;;;;;5032865;28;20029;-52
2021/01/11 00:41:18;;;;;;;25.67;9.30;;;5.20;83.10;;;;;;5033152;28;20026;-53
2021/01/11 00:43:44;;;;;;;24.05;9.77;;;5.20;83.10;;;;;;5033181;28;20025;-52
2021/01/11 00:46:09;;;;;;;23.05;9.18;;;5.20;83.10;;;;;;5032898;28;20113;-52
2021/01/11 00:48:35;;;;;;;25.48;9.30;;;5.20;83.20;;;;;;5033128;28;20452;-53
2021/01/11 00:51:00;;;;;;;22.17;8.82;;;5.20;83.10;;;;;;5032947;28;20060;-52
2021/01/11 00:53:26;;;;;;;25.50;9.63;;;5.20;83.20;;;;;;5032848;28;20029;-52
2021/01/11 00:55:52;;;;;;;28.42;9.68;;;5.20;83.10;;;;;;5032821;28;20025;-52
2021/01/11 00:58:17;;;;;;;30.80;11.05;;;5.20;83.10;;;;;;5033187;28;20026;-52
2021/01/11 01:00:43;;;;;;;27.25;9.85;;;5.20;83.10;;;;;;5033118;28;20467;-53
2021/01/11 01:03:09;;;;;;;27.75;11.13;;;5.20;83.10;;;;;;5035414;28;20033;-52
2021/01/11 01:05:34;;;;;;;28.23;10.85;;;5.20;83.20;;;;;;5036459;28;20071;-52
2021/01/11 01:08:01;;;;;;;30.00;10.63;;;5.20;83.10;;;;;;5036582;28;20451;-52
2021/01/11 01:10:26;;;;;;;22.95;9.65;;;5.20;83.10;;;;;;5037013;28;20025;-52
2021/01/11 01:12:52;;;;;;;27.58;10.57;;;5.20;83.10;;;;;;5037021;28;20095;-52
2021/01/11 01:15:17;;;;;;;29.60;9.77;;;5.20;83.10;;;;;;5036260;28;20026;-52
2021/01/11 01:17:43;;;;;;;26.45;9.55;;;5.20;83.00;;;;;;5036749;28;20022;-53
2021/01/11 01:20:15;;;;;;;33.25;10.05;;;5.20;83.00;;;;;;5036715;28;20348;-52
2021/01/11 01:22:46;;;;;;;33.55;11.27;;;5.20;83.10;;;;;;5036555;28;20036;-52
2021/01/11 01:25:12;;;;;;;27.88;11.00;;;5.20;83.00;;;;;;5036374;28;20421;-53
2021/01/11 01:27:38;;;;;;;26.27;10.85;;;5.20;82.90;;;;;;5036416;28;20029;-52
2021/01/11 01:30:04;;;;;;;29.48;11.45;;;5.20;82.90;;;;;;5035721;28;20087;-52
2021/01/11 01:32:30;;;;;;;28.33;10.00;;;5.20;82.90;;;;;;5016772;28;20052;-52
2021/01/11 01:34:55;;;;;;;27.85;9.90;;;5.20;83.00;;;;;;5016101;28;20031;-53
2021/01/11 01:37:21;;;;;;;30.40;11.25;;;5.20;83.00;;;;;;5016473;28;20463;-53
2021/01/11 01:39:47;;;;;;;28.88;10.75;;;5.20;83.00;;;;;;5016695;28;20030;-52
2021/01/11 01:42:12;;;;;;;28.27;11.98;;;5.20;82.90;;;;;;5016657;28;20037;-53
2021/01/11 01:44:38;;;;;;;32.45;10.40;;;5.20;82.90;;;;;;5016349;28;20030;-52
2021/01/11 01:47:03;;;;;;;29.25;11.13;;;5.20;83.60;;;;;;5016315;28;20439;-52
2021/01/11 01:49:29;;;;;;;27.48;9.82;;;5.20;82.90;;;;;;5016214;28;20049;-52
2021/01/11 01:51:55;;;;;;;22.30;9.10;;;5.20;82.90;;;;;;5016327;28;20026;-53
2021/01/11 01:54:21;;;;;;;26.50;10.00;;;5.20;82.80;;;;;;5016420;28;20033;-53
2021/01/11 01:56:47;;;;;;;27.90;10.55;;;5.20;82.80;;;;;;5032469;28;20332;-52
2021/01/11 01:59:14;;;;;;;24.70;10.13;;;5.20;82.80;;;;;;5033502;28;20431;-52
2021/01/11 02:01:40;;;;;;;28.60;10.38;;;5.20;82.90;;;;;;5043503;28;20025;-52
2021/01/11 02:04:06;;;;;;;27.55;10.98;;;5.20;82.90;;;;;;5054148;28;20461;-52
2021/01/11 02:06:36;;;;;;;32.70;11.02;;;5.20;82.80;;;;;;5039937;28;20026;-52
2021/01/11 02:09:09;;;;;;;25.13;10.43;;;5.20;82.80;;;;;;5036001;28;20037;-53
2021/01/11 02:12:04;;;;;;;28.52;9.82;;;5.20;82.80;;;;;;5035786;28;20113;-52
2021/01/11 02:14:45;;;;;;;34.92;11.60;;;5.30;82.80;;;;;;5035436;28;20340;-52
2021/01/11 02:17:28;;;;;;;31.33;11.45;;;5.30;82.80;;;;;;5035395;28;20017;-52
2021/01/11 02:20:15;;;;;;;28.50;12.23;;;5.20;82.80;;;;;;5035586;28;20486;-52
2021/01/11 02:23:06;;;;;;;32.45;10.50;;;5.20;82.80;;;;;;5035559;28;20029;-52
2021/01/11 02:25:42;;;;;;;33.47;11.70;;;5.20;82.80;;;;;;5034135;28;20645;-53
2021/01/11 02:28:41;;;;;;;34.17;10.55;;;5.30;82.80;;;;;;5035404;28;20485;-52
2021/01/11 02:31:07;;;;;;;28.60;11.65;;;5.30;82.70;;;;;;5035109;28;20022;-52
2021/01/11 02:33:34;;;;;;;27.85;10.90;;;5.20;82.70;;;;;;5035169;28;20025;-52
2021/01/11 02:36:05;;;;;;;35.17;10.38;;;5.30;82.70;;;;;;5034906;28;20033;-52
2021/01/11 02:38:32;;;;;;;33.70;13.65;;;5.30;82.70;;;;;;5035262;28;20037;-52
2021/01/11 02:40:58;;;;;;;27.08;10.90;;;5.30;82.70;;;;;;5035037;28;20037;-52
2021/01/11 02:43:24;;;;;;;27.77;10.45;;;5.30;82.60;;;;;;5017459;28;20022;-52
2021/01/11 02:45:49;;;;;;;30.60;10.48;;;5.30;82.70;;;;;;5014713;28;20034;-52
2021/01/11 02:48:21;;;;;;;25.50;9.82;;;5.30;82.60;;;;;;5015307;28;20455;-53
2021/01/11 02:51:14;;;;;;;23.15;10.57;;;5.30;82.70;;;;;;5015224;28;20025;-53
2021/01/11 02:54:01;;;;;;;21.45;9.35;;;5.30;82.60;;;;;;5015294;28;20348;-52
2021/01/11 02:56:43;;;;;;;33.42;9.38;;;5.30;82.70;;;;;;5028815;28;20033;-52
2021/01/11 02:59:23;;;;;;;28.75;8.88;;;5.30;82.60;;;;;;5034907;28;20129;-52
2021/01/11 03:01:54;;;;;;;;;;;5.30;82.60;;;;;;5035275;28;20032;-52
2021/01/11 03:04:21;;;;;;;;;;;5.30;82.60;;;;;;5035273;28;20353;-53
2021/01/11 03:07:04;;;;;;;35.25;10.57;;;5.30;82.60;;;;;;5029860;28;19909;-53
2021/01/11 03:09:31;;;;;;;29.45;10.15;;;5.30;82.60;;;;;;5015032;28;20041;-53
2021/01/11 03:11:58;;;;;;;30.05;11.20;;;5.30;82.60;;;;;;5014782;28;20026;-53
2021/01/11 03:14:24;;;;;;;25.65;9.50;;;5.30;82.60;;;;;;5014999;28;20038;-52
2021/01/11 03:16:50;;;;;;;28.80;9.85;;;5.30;82.60;;;;;;5014485;28;20025;-52
2021/01/11 03:19:16;;;;;;;23.63;9.20;;;5.30;82.50;;;;;;5014630;28;20022;-52
2021/01/11 03:21:42;;;;;;;32.60;11.00;;;5.30;82.60;;;;;;5014827;28;20028;-53
2021/01/11 03:24:08;;;;;;;32.58;10.73;;;5.30;82.50;;;;;;5014289;28;20037;-52
2021/01/11 03:26:35;;;;;;;25.80;9.90;;;5.30;82.60;;;;;;5013818;28;20454;-52
2021/01/11 03:29:01;;;;;;;30.52;11.10;;;5.30;82.50;;;;;;5014571;28;20045;-52
2021/01/11 03:31:27;;;;;;;27.88;9.88;;;5.30;82.60;;;;;;5014336;28;20466;-52
2021/01/11 03:33:52;;;;;;;27.27;11.15;;;5.30;82.50;;;;;;5014379;28;20349;-52
2021/01/11 03:36:18;;;;;;;29.55;11.05;;;5.30;82.50;;;;;;5014041;28;20058;-52
2021/01/11 03:38:44;;;;;;;26.83;10.32;;;5.30;82.50;;;;;;5014574;28;20067;-52
2021/01/11 03:41:10;;;;;;;28.30;10.98;;;5.30;82.50;;;;;;5013285;28;20057;-52
2021/01/11 03:43:41;;;;;;;31.88;10.50;;;5.30;82.40;;;;;;5022643;28;20049;-52
2021/01/11 03:46:13;;;;;;;29.10;11.00;;;5.30;82.40;;;;;;5033638;28;20030;-52
2021/01/11 03:48:39;;;;;;;27.17;9.85;;;5.30;82.50;;;;;;5027254;28;20037;-53
2021/01/11 03:51:06;;;;;;;22.80;9.68;;;5.30;82.50;;;;;;5033674;28;20025;-53
2021/01/11 03:53:31;;;;;;;24.25;9.18;;;5.30;82.40;;;;;;5033433;28;20029;-52
2021/01/11 03:55:57;;;;;;;31.50;10.02;;;5.30;82.40;;;;;;5033699;28;20024;-53
2021/01/11 03:58:23;;;;;;;18.80;8.38;;;5.30;82.40;;;;;;5033758;28;20025;-53
2021/01/11 04:00:49;;;;;;;32.25;9.77;;;5.30;82.40;;;;;;5033890;28;20029;-52
2021/01/11 04:03:16;;;;;;;23.80;8.75;;;5.30;82.40;;;;;;5033486;28;20048;-52
2021/01/11 04:05:48;;;;;;;23.33;9.38;;;5.30;82.40;;;;;;5033296;28;20067;-53
2021/01/11 04:08:14;;;;;;;28.98;10.57;;;5.30;82.40;;;;;;5033418;28;20454;-52
2021/01/11 04:10:40;;;;;;;22.05;8.00;;;5.30;82.30;;;;;;5033785;28;20120;-52
2021/01/11 04:13:06;;;;;;;23.88;6.55;;;5.30;82.20;;;;;;5033316;28;20018;-53
2021/01/11 04:15:32;;;;;;;21.27;7.75;;;5.30;82.20;;;;;;5033378;28;20038;-53
2021/01/11 04:17:58;;;;;;;23.55;8.93;;;5.30;82.20;;;;;;5033361;28;20410;-53
2021/01/11 04:20:24;;;;;;;25.58;9.27;;;5.30;82.90;;;;;;5033305;28;20073;-52
2021/01/11 04:22:50;;;;;;;30.30;9.38;;;5.30;82.10;;;;;;5033206;28;20025;-52
2021/01/11 04:25:16;;;;;;;25.83;9.05;;;5.30;82.10;;;;;;5033376;28;20040;-52
2021/01/11 04:27:42;;;;;;;20.88;8.57;;;5.30;82.10;;;;;;5033239;28;20021;-52
2021/01/11 04:30:09;;;;;;;29.95;9.77;;;5.30;82.10;;;;;;5033304;28;20041;-53
2021/01/11 04:32:35;;;;;;;22.55;9.88;;;5.30;82.00;;;;;;5033239;28;20443;-52
2021/01/11 04:35:07;;;;;;;20.65;8.10;;;5.30;82.00;;;;;;5032665;28;20029;-53
2021/01/11 04:37:33;;;;;;;20.17;7.60;;;5.30;81.90;;;;;;5032888;28;20493;-53
2021/01/11 04:39:59;;;;;;;16.60;7.75;;;5.30;81.90;;;;;;5033277;28;20029;-53
2021/01/11 04:42:40;;;;;;;29.52;9.70;;;5.30;81.90;;;;;;5033220;28;20025;-52
2021/01/11 04:45:07;;;;;;;19.73;8.25;;;5.30;81.80;;;;;;5013183;28;20030;-53
2021/01/11 04:47:34;;;;;;;26.02;8.43;;;5.30;81.80;;;;;;5013078;28;20341;-53
2021/01/11 04:50:04;;;;;;;23.30;9.50;;;5.30;81.80;;;;;;5013250;28;20049;-53
2021/01/11 04:52:31;;;;;;;29.13;10.50;;;5.30;81.70;;;;;;5013400;28;20023;-53
2021/01/11 04:55:02;;;;;;;25.38;10.02;;;5.30;81.60;;;;;;5014799;28;20037;-53
2021/01/11 04:57:33;;;;;;;19.73;8.70;;;5.30;81.60;;;;;;5033174;28;20025;-53
2021/01/11 05:00:05;;;;;;;27.00;8.73;;;5.30;81.60;;;;;;5032688;28;20053;-52
2021/01/11 05:02:31;;;;;;;25.25;11.10;;;5.30;81.50;;;;;;5033157;28;20513;-53
2021/01/11 05:04:57;;;;;;;25.98;10.15;;;5.30;81.50;;;;;;5032712;28;20018;-53
2021/01/11 05:07:23;;;;;;;24.55;10.70;;;5.30;81.40;;;;;;5032800;28;20447;-53
2021/01/11 05:09:49;;;;;;;28.60;11.40;;;5.30;81.50;;;;;;5032859;28;20121;-53
2021/01/11 05:12:15;;;;;;;25.05;9.85;;;5.30;81.40;;;;;;5033423;28;20108;-53
2021/01/11 05:14:43;;;;;;;21.85;9.05;;;5.30;81.30;;;;;;5032594;28;20513;-53
2021/01/11 05:17:13;;;;;;;26.05;9.93;;;5.30;81.40;;;;;;5032913;28;20022;-53
2021/01/11 05:19:39;;;;;;;24.98;8.85;;;5.30;81.40;;;;;;5032923;28;20035;-53
2021/01/11 05:22:09;;;;;;;23.58;8.90;;;5.30;81.40;;;;;;5033329;28;20021;-53
2021/01/11 05:24:43;;;;;;;26.13;10.43;;;5.30;81.30;;;;;;5032803;28;20057;-53
2021/01/11 05:27:10;;;;;;;24.52;9.02;;;5.30;81.30;;;;;;5032236;28;20090;-53
2021/01/11 05:29:38;;;;;;;26.17;9.25;;;5.30;81.30;;;;;;5032256;28;20064;-53
2021/01/11 05:32:06;;;;;;;23.58;9.35;;;5.30;81.30;;;;;;5028325;28;20071;-53
2021/01/11 05:34:47;;;;;;;21.88;8.52;;;5.30;81.30;;;;;;5018065;28;20176;-53
2021/01/11 05:37:31;;;;;;;21.60;9.80;;;5.30;81.20;;;;;;5021225;28;20030;-53
2021/01/11 05:40:08;;;;;;;24.25;10.45;;;5.30;81.20;;;;;;5023824;28;20018;-53
2021/01/11 05:42:34;;;;;;;31.63;10.30;;;5.30;81.20;;;;;;5018693;28;20040;-53
2021/01/11 05:45:15;;;;;;;28.35;10.23;;;5.30;81.20;;;;;;5018300;28;20056;-53
2021/01/11 05:48:16;;;;;;;;;;;5.30;81.30;;;;;;5019901;28;20030;-53
2021/01/11 05:50:48;;;;;;;;;;;5.30;81.20;;;;;;5080510;28;19966;-53
2021/01/11 05:53:19;;;;;;;31.33;10.85;;;5.30;81.20;;;;;;5083134;28;19995;-53
2021/01/11 05:55:46;;;;;;;28.73;10.38;;;5.30;81.20;;;;;;5086741;28;20028;-53
2021/01/11 05:58:12;;;;;;;32.10;10.80;;;5.30;81.20;;;;;;5082770;28;20111;-53
2021/01/11 06:00:39;;;;;;;33.03;11.02;;;5.30;81.20;;;;;;5076153;28;20686;-53
2021/01/11 06:03:07;;;;;;;24.20;9.77;;;5.30;81.20;;;;;;5087489;28;20032;-53
2021/01/11 06:05:34;;;;;;;31.60;11.25;;;5.30;81.10;;;;;;5087790;28;20032;-53
2021/01/11 06:08:01;;;;;;;26.40;9.25;;;5.30;81.10;;;;;;5083875;28;20028;-53
2021/01/11 06:10:27;;;;;;;31.30;10.80;;;5.30;81.10;;;;;;5077401;28;20034;-53
2021/01/11 06:12:53;;;;;;;27.55;9.93;;;5.30;81.10;;;;;;5087198;28;20053;-53
2021/01/11 06:15:23;;;;;;;19.88;7.72;;;5.30;81.10;;;;;;5084006;28;20024;-53
2021/01/11 06:17:57;;;;;;;31.27;8.82;;;5.30;81.10;;;;;;5077600;28;20045;-51
2021/01/11 06:20:25;;;;;;;20.70;8.27;;;5.40;81.40;;;;;;5075256;28;20033;-51
2021/01/11 06:22:51;;;;;;;25.40;9.30;;;5.30;81.10;;;;;;5076802;28;20027;-52
2021/01/11 06:25:19;;;;;;;23.85;10.43;;;5.30;81.00;;;;;;5044972;28;20037;-51
2021/01/11 06:28:05;;;;;;;24.08;10.05;;;5.30;80.90;;;;;;5034915;28;20029;-52
2021/01/11 06:30:33;;;;;;;18.58;9.13;;;5.30;80.60;;;;;;5035390;28;20036;-51
2021/01/11 06:33:07;;;;;;;30.55;11.30;;;5.30;80.60;;;;;;5035365;28;20439;-51
2021/01/11 06:35:46;;;;;;;30.20;10.40;;;5.30;80.50;;;;;;5028205;28;20435;-51
2021/01/11 06:38:25;;;;;;;16.95;7.13;;;5.30;80.30;;;;;;5015702;28;20045;-52
2021/01/11 06:41:12;;;;;;;13.23;7.37;;;5.30;80.30;;;;;;5015593;28;20046;-51
2021/01/11 06:44:01;;;;;;;23.42;8.95;;;5.30;80.20;;;;;;5015649;28;20049;-52
2021/01/11 06:46:29;;;;;;;17.67;6.95;;;5.30;80.10;;;;;;5014868;28;20043;-52
2021/01/11 06:49:00;;;;;;;28.58;8.90;;;5.30;80.10;;;;;;5015476;28;20038;-52
2021/01/11 06:51:40;;;;;;;26.75;8.32;;;5.30;80.00;;;;;;5015356;28;20076;-51
2021/01/11 06:54:09;;;;;;;23.48;9.15;;;5.30;80.00;;;;;;5015176;28;20037;-51
2021/01/11 06:56:37;;;;;;;24.38;8.07;;;5.30;79.90;;;;;;5014967;28;20033;-52
2021/01/11 06:59:11;;;;;;;17.77;7.65;;;5.30;79.90;;;;;;5015305;28;20034;-51
2021/01/11 07:01:39;;;;;;;22.92;8.15;;;5.30;79.90;;;;;;5015006;28;20037;-51
2021/01/11 07:04:05;;;;;;;19.75;6.95;;;5.30;79.90;;;;;;5014979;28;20395;-51
2021/01/11 07:06:41;;;;;;;20.60;7.45;;;5.30;79.90;;;;;;5014669;28;20029;-51
2021/01/11 07:09:19;;;;;;;18.58;7.60;;;5.30;79.80;;;;;;5029560;28;20409;-52
2021/01/11 07:11:50;;;;;;;22.13;8.68;;;5.30;79.70;;;;;;5034830;28;20026;-51
2021/01/11 07:14:23;;;;;;;19.27;7.47;;;5.30;79.70;;;;;;5025307;28;20097;-52
2021/01/11 07:16:51;;;;;;;23.77;8.00;;;5.30;79.70;;;;;;5024706;28;20423;-51
2021/01/11 07:19:37;;;;;;;20.50;7.75;;;5.30;79.80;;;;;;5019384;28;20032;-52
2021/01/11 07:22:09;;;;;;;20.75;9.32;;;5.30;79.70;;;;;;5025538;28;20064;-51
2021/01/11 07:24:40;;;;;;;22.25;9.75;;;5.30;79.70;;;;;;5024692;28;20108;-52
2021/01/11 07:27:06;;;;;;;25.40;7.65;;;5.30;79.70;;;;;;5025714;28;20044;-51
2021/01/11 07:29:32;;;;;;;24.30;10.18;;;5.30;79.60;;;;;;5023471;28;20040;-52
2021/01/11 07:31:58;;;;;;;21.15;9.25;;;5.30;79.60;;;;;;5024906;28;20108;-51
2021/01/11 07:34:24;;;;;;;18.98;7.85;;;5.30;79.60;;;;;;5023371;28;20017;-52
2021/01/11 07:36:55;;;;;;;21.38;8.80;;;5.40;79.60;;;;;;5023313;28;20056;-51
2021/01/11 07:39:20;;;;;;;20.17;7.60;;;5.30;79.50;;;;;;5024697;28;20116;-51
2021/01/11 07:42:01;;;;;;;19.70;7.80;;;5.30;79.50;;;;;;5023304;28;20574;-51
2021/01/11 07:44:37;;;;;;;23.23;8.65;;;5.30;79.50;;;;;;5025571;28;20018;-51
2021/01/11 07:47:14;;;;;;;16.42;7.85;;;5.30;79.60;;;;;;5024386;28;20029;-51
2021/01/11 07:49:48;;;;;;;21.17;7.53;;;5.30;79.50;;;;;;5026278;28;20085;-52
2021/01/11 07:52:21;;;;;;;22.40;9.10;;;5.30;79.50;;;;;;5019483;28;20033;-51
2021/01/11 07:54:56;;;;;;;22.27;8.88;;;5.40;79.50;;;;;;5022084;28;20025;-51
2021/01/11 07:57:28;;;;;;;24.30;8.65;;;5.30;79.50;;;;;;5024182;28;20033;-52
2021/01/11 08:00:11;;;;;;;18.35;7.82;;;5.40;79.50;;;;;;5023671;28;20030;-51
2021/01/11 08:02:37;;;;;;;19.40;8.13;;;5.40;79.50;;;;;;5024597;28;20032;-51
2021/01/11 08:05:05;;;;;;;27.15;9.40;;;5.40;79.50;;;;;;5022113;28;20509;-51
2021/01/11 08:07:32;;;;;;;22.58;10.00;;;5.40;79.40;;;;;;5023328;28;20022;-51
2021/01/11 08:10:00;;;;;;;21.15;9.00;;;5.40;79.40;;;;;;5024098;28;20115;-51
2021/01/11 08:12:27;;;;;;;24.45;9.73;;;5.40;79.40;;;;;;5024250;28;20029;-51
2021/01/11 08:15:00;;;;;;;26.42;8.60;;;5.40;79.50;;;;;;5023425;28;20128;-51
2021/01/11 08:17:27;;;;;;;24.63;9.23;;;5.40;79.40;;;;;;5024050;28;20029;-51
2021/01/11 08:19:57;;;;;;;24.88;9.18;;;5.40;79.40;;;;;;5022100;28;20033;-52
2021/01/11 08:22:23;;;;;;;;;;;5.40;79.40;;;;;;5023724;28;20022;-51
2021/01/11 08:24:53;;;;;;;20.77;9.68;;;5.40;79.40;;;;;;5032894;28;19937;-52
2021/01/11 08:27:22;;;;;;;33.67;10.98;;;5.40;79.40;;;;;;5032833;28;20499;-52
2021/01/11 08:29:48;;;;;;;28.00;11.27;;;5.40;79.40;;;;;;5032516;28;20044;-52
2021/01/11 08:32:18;;;;;;;33.83;10.85;;;5.40;79.30;;;;;;5033420;28;20032;-51
2021/01/11 08:34:43;;;;;;;24.88;9.27;;;5.40;80.10;;;;;;5033366;28;20030;-51
2021/01/11 08:37:32;;;;;;;29.15;11.45;;;5.40;79.30;;;;;;5032638;28;20034;-51
2021/01/11 08:40:00;;;;;;;25.45;9.93;;;5.40;79.30;;;;;;5033239;28;20539;-52
2021/01/11 08:42:30;;;;;;;22.48;9.75;;;5.40;79.30;;;;;;5033587;28;20029;-51
2021/01/11 08:45:34;;;;;;;31.02;10.30;;;5.40;79.40;;;;;;5033183;28;20075;-51
2021/01/11 08:48:06;;;;;;;25.80;10.32;;;5.40;79.30;;;;;;5033187;28;20033;-51
2021/01/11 08:50:38;;;;;;;29.38;10.68;;;5.40;79.20;;;;;;5033277;28;20107;-51
2021/01/11 08:53:25;;;;;;;32.30;10.75;;;5.40;79.20;;;;;;5033344;28;20291;-52
2021/01/11 08:56:03;;;;;;;29.65;10.52;;;5.40;79.20;;;;;;5032786;28;20033;-51
2021/01/11 08:58:30;;;;;;;28.95;10.18;;;5.40;79.20;;;;;;5033082;28;20492;-52
2021/01/11 09:01:17;;;;;;;23.65;9.73;;;5.40;79.30;;;;;;5032961;28;20038;-51
2021/01/11 09:03:55;;;;;;;26.02;10.70;;;5.40;79.20;;;;;;5033567;28;20028;-51
2021/01/11 09:06:44;;;;;;;26.42;9.80;;;5.40;79.20;;;;;;5019041;28;20029;-51
2021/01/11 09:09:11;;;;;;;30.60;11.20;;;5.50;79.20;;;;;;5013397;28;20042;-51
2021/01/11 09:11:38;;;;;;;27.13;9.95;;;5.50;79.20;;;;;;5013336;28;20028;-51
2021/01/11 09:14:08;;;;;;;19.02;9.02;;;5.50;79.20;;;;;;5013392;28;20097;-52
2021/01/11 09:16:35;;;;;;;17.27;7.90;;;5.50;79.10;;;;;;5012812;28;20033;-51
2021/01/11 09:19:15;;;;;;;29.08;10.20;;;5.50;79.10;;;;;;5013014;28;20479;-51
2021/01/11 09:21:42;;;;;;;31.27;10.82;;;5.50;79.00;;;;;;5013252;28;20088;-51
2021/01/11 09:24:09;;;;;;;27.10;9.02;;;5.50;79.10;;;;;;5015632;28;20455;-51
2021/01/11 09:26:39;;;;;;;33.20;10.20;;;5.50;79.00;;;;;;5016585;28;20112;-51
2021/01/11 09:29:06;;;;;;;33.17;12.25;;;5.50;79.00;;;;;;5016930;28;20042;-51
2021/01/11 09:31:32;;;;;;;26.20;9.95;;;5.60;79.00;;;;;;5016577;28;20070;-52
2021/01/11 09:33:58;;;;;;;26.63;9.70;;;5.50;78.90;;;;;;5016886;28;20069;-52
2021/01/11 09:36:30;;;;;;;25.48;11.23;;;5.50;78.80;;;;;;5016568;28;20436;-52
2021/01/11 09:38:55;;;;;;;20.92;7.55;;;5.60;78.90;;;;;;5016644;28;20034;-51
2021/01/11 09:41:21;;;;;;;24.27;8.63;;;5.60;78.90;;;;;;5018633;28;20030;-51
2021/01/11 09:43:47;;;;;;;19.83;7.97;;;5.60;78.80;;;;;;5024184;28;20025;-51
2021/01/11 09:46:12;;;;;;;27.08;10.00;;;5.60;78.80;;;;;;5020007;28;20519;-52
2021/01/11 09:48:38;;;;;;;22.88;7.68;;;5.60;78.70;;;;;;5016412;28;20034;-51
2021/01/11 09:51:04;;;;;;;25.67;10.85;;;5.70;78.70;;;;;;5016137;28;20033;-51
2021/01/11 09:53:30;;;;;;;13.80;2.78;;;5.70;78.70;;;;;;5022528;28;20034;-52
2021/01/11 09:55:56;;;;;;;29.90;9.82;;;5.70;78.60;;;;;;5035827;28;20324;-52
2021/01/11 09:58:22;;;;;;;40.50;11.63;;;5.70;78.50;;;;;;5036036;28;20032;-52
2021/01/11 10:00:48;;;;;;;29.73;11.63;;;5.70;78.50;;;;;;5036553;28;20025;-52
2021/01/11 10:03:13;;;;;;;23.70;9.07;;;5.70;78.50;;;;;;5035869;28;20029;-51
2021/01/11 10:05:39;;;;;;;27.73;8.52;;;5.70;78.50;;;;;;5027626;28;20054;-51
2021/01/11 10:08:05;;;;;;;7.63;4.15;;;5.80;78.40;;;;;;5015851;28;20021;-52
2021/01/11 10:10:31;;;;;;;16.73;6.55;;;5.80;78.40;;;;;;5016107;28;20030;-52
2021/01/11 10:12:56;;;;;;;29.20;11.07;;;5.80;78.40;;;;;;5016090;28;20056;-51
2021/01/11 10:15:22;;;;;;;20.70;7.32;;;5.80;78.30;;;;;;5015829;28;20084;-52
2021/01/11 10:17:47;;;;;;;17.30;7.65;;;5.80;78.30;;;;;;5015751;28;20026;-51
2021/01/11 10:20:13;;;;;;;15.85;6.53;;;5.80;78.30;;;;;;5015725;28;20347;-51
2021/01/11 10:22:39;;;;;;;21.33;7.75;;;5.90;78.20;;;;;;5015748;28;20029;-52
2021/01/11 10:25:07;;;;;;;30.40;11.63;;;5.90;78.20;;;;;;5015905;28;20018;-52
2021/01/11 10:27:34;;;;;;;10.35;5.13;;;5.90;78.10;;;;;;5015658;28;20390;-52
2021/01/11 10:29:59;;;;;;;22.60;8.52;;;5.90;78.00;;;;;;5015808;28;20044;-51
2021/01/11 10:32:25;;;;;;;23.50;9.55;;;5.90;78.00;;;;;;5015605;28;20030;-51
2021/01/11 10:34:51;;;;;;;23.83;9.85;;;5.90;78.00;;;;;;5015015;28;20036;-52
2021/01/11 10:37:17;;;;;;;21.75;9.13;;;5.90;77.90;;;;;;5015355;28;20033;-52
2021/01/11 10:39:42;;;;;;;18.17;8.85;;;5.90;77.90;;;;;;5015832;28;20061;-51
2021/01/11 10:42:08;;;;;;;12.07;6.45;;;5.90;77.90;;;;;;5015622;28;20684;-51
2021/01/11 10:44:34;;;;;;;20.15;8.05;;;6.00;78.00;;;;;;5015534;28;20035;-52
2021/01/11 10:47:00;;;;;;;19.42;9.02;;;6.00;78.10;;;;;;5014898;28;20025;-51
2021/01/11 10:49:27;;;;;;;25.45;10.10;;;6.00;78.00;;;;;;5015540;28;20148;-51
2021/01/11 10:51:55;;;;;;;19.17;6.53;;;6.00;77.90;;;;;;5015608;28;20033;-51
2021/01/11 10:54:22;;;;;;;24.50;8.00;;;6.00;77.90;;;;;;5015351;28;20292;-51
2021/01/11 10:56:50;;;;;;;23.70;9.23;;;6.00;77.80;;;;;;5014920;28;20375;-51
2021/01/11 10:59:16;;;;;;;22.88;8.18;;;6.00;77.90;;;;;;5015494;28;20456;-51
2021/01/11 11:01:42;;;;;;;20.45;8.75;;;6.00;77.80;;;;;;5014868;28;20029;-52
2021/01/11 11:04:08;;;;;;;20.08;7.50;;;6.00;77.60;;;;;;5015253;28;20026;-52
2021/01/11 11:06:33;;;;;;;25.52;9.65;;;6.00;77.70;;;;;;5030229;28;20100;-52
2021/01/11 11:08:59;;;;;;;22.92;9.65;;;6.10;77.70;;;;;;5034677;28;20029;-51
2021/01/11 11:11:24;;;;;;;19.33;7.03;;;6.00;77.70;;;;;;5034708;28;20434;-51
2021/01/11 11:13:50;;;;;;;10.27;5.13;;;6.10;77.70;;;;;;5034629;28;20367;-52
2021/01/11 11:16:16;;;;;;;14.65;6.63;;;6.10;77.70;;;;;;5034169;28;20021;-51
2021/01/11 11:18:42;;;;;;;20.92;9.10;;;6.10;77.80;;;;;;5034674;28;20152;-52
2021/01/11 11:21:09;;;;;;;21.90;9.07;;;6.10;77.70;;;;;;5034705;28;20033;-51
2021/01/11 11:23:36;;;;;;;16.27;6.30;;;6.10;77.70;;;;;;5034541;28;20104;-51
2021/01/11 11:26:02;;;;;;;23.90;9.18;;;6.10;77.70;;;;;;5034343;28;20053;-51
2021/01/11 11:28:32;;;;;;;17.25;7.78;;;6.10;78.50;;;;;;5029653;28;20029;-51
2021/01/11 11:30:58;;;;;;;23.90;8.50;;;6.10;77.70;;;;;;5023254;28;20037;-52
2021/01/11 11:33:25;;;;;;;16.55;6.28;;;6.10;77.70;;;;;;5015532;28;20480;-51
2021/01/11 11:35:51;;;;;;;21.35;8.68;;;6.10;77.70;;;;;;5021739;28;20042;-51
2021/01/11 11:38:18;;;;;;;21.33;8.75;;;6.10;77.60;;;;;;5018459;28;20041;-51
2021/01/11 11:40:43;;;;;;;22.17;9.20;;;6.10;77.60;;;;;;5014449;28;20493;-51
2021/01/11 11:43:09;;;;;;;28.25;9.23;;;6.10;77.60;;;;;;5014295;28;20022;-51
2021/01/11 11:45:35;;;;;;;25.48;9.02;;;6.10;77.60;;;;;;5015358;28;20048;-52
2021/01/11 11:48:00;;;;;;;23.83;9.20;;;6.10;77.50;;;;;;5014423;28;20030;-52
2021/01/11 11:50:26;;;;;;;22.80;9.45;;;6.10;77.60;;;;;;5014696;28;20359;-52
2021/01/11 11:52:52;;;;;;;23.55;9.15;;;6.10;77.60;;;;;;5014036;28;20360;-51
2021/01/11 11:55:18;;;;;;;20.55;7.95;;;6.10;77.70;;;;;;5014224;28;20018;-51
2021/01/11 11:57:44;;;;;;;19.92;9.07;;;6.10;77.60;;;;;;5013827;28;20030;-51
2021/01/11 12:00:15;;;;;;;19.38;7.13;;;6.10;77.70;;;;;;5013821;28;20026;-51
2021/01/11 12:02:41;;;;;;;9.05;4.25;;;6.10;77.50;;;;;;5014028;28;20452;-52
2021/01/11 12:05:09;;;;;;;10.13;3.72;;;6.20;77.60;;;;;;5017474;28;20374;-52
2021/01/11 12:07:35;;;;;;;18.23;6.35;;;6.20;77.80;;;;;;5033767;28;20030;-51
2021/01/11 12:10:00;;;;;;;17.58;8.32;;;6.20;77.60;;;;;;5033613;28;20486;-51
2021/01/11 12:12:26;;;;;;;20.83;9.70;;;6.10;77.70;;;;;;5030341;28;20045;-51
2021/01/11 12:14:51;;;;;;;11.27;4.82;;;6.20;77.60;;;;;;5033631;28;20029;-51
2021/01/11 12:17:17;;;;;;;24.52;8.98;;;6.20;77.60;;;;;;5033380;28;20049;-51
2021/01/11 12:19:43;;;;;;;23.65;8.95;;;6.20;77.60;;;;;;5033405;28;20505;-52
2021/01/11 12:22:11;;;;;;;22.83;8.25;;;6.20;77.60;;;;;;5033377;28;20025;-51
2021/01/11 12:24:38;;;;;;;19.42;8.52;;;6.20;77.70;;;;;;5033363;28;20034;-52
2021/01/11 12:27:04;;;;;;;22.17;9.00;;;6.20;77.60;;;;;;5032976;28;20030;-51
2021/01/11 12:29:30;;;;;;;21.08;7.28;;;6.20;77.60;;;;;;5023733;28;20177;-52
2021/01/11 12:31:56;;;;;;;23.42;8.73;;;6.20;77.70;;;;;;5023054;28;20021;-52
2021/01/11 12:34:22;;;;;;;16.85;7.72;;;6.20;77.80;;;;;;5023892;28;20415;-52
2021/01/11 12:36:47;;;;;;;19.92;8.25;;;6.20;77.60;;;;;;5017347;28;20028;-52
2021/01/11 12:39:13;;;;;;;18.13;8.10;;;6.20;77.60;;;;;;5033093;28;20087;-51
2021/01/11 12:41:40;;;;;;;19.83;7.70;;;6.20;77.70;;;;;;5033251;28;20021;-52
2021/01/11 12:44:09;;;;;;;22.58;7.75;;;6.20;77.70;;;;;;5033344;28;20078;-51
2021/01/11 12:46:35;;;;;;;24.67;9.45;;;6.20;77.70;;;;;;5032980;28;20040;-52
2021/01/11 12:49:01;;;;;;;16.73;6.47;;;6.20;77.60;;;;;;5033155;28;20052;-51
2021/01/11 12:51:27;;;;;;;21.45;9.00;;;6.30;77.70;;;;;;5033387;28;20026;-51
2021/01/11 12:53:54;;;;;;;20.02;8.18;;;6.20;77.60;;;;;;5032961;28;20475;-51
2021/01/11 12:56:24;;;;;;;9.73;4.13;;;6.20;77.60;;;;;;5028200;28;20025;-51